sensor_id;sensor_type;location;lat;lon;timestamp;P1;durP1;ratioP1;P2;durP2;ratioP2
54945;SDS011;40846;44.788;20.486;2023-05-15T00:00:31;15.57;;;6.45;;
54945;SDS011;40846;44.788;20.486;2023-05-15T00:02:57;9.98;;;6.00;;
54945;SDS011;40846;44.788;20.486;2023-05-15T00:05:23;13.25;;;5.88;;
54945;SDS011;40846;44.788;20.486;2023-05-15T00:07:49;9.50;;;5.63;;
54945;SDS011;40846;44.788;20.486;2023-05-15T00:10:16;11.95;;;7.15;;
54945;SDS011;40846;44.788;20.486;2023-05-15T00:12:42;9.93;;;6.07;;
54945;SDS011;40846;44.788;20.486;2023-05-15T00:15:08;14.38;;;6.07;;
54945;SDS011;40846;44.788;20.486;2023-05-15T00:17:34;9.10;;;5.40;;
54945;SDS011;40846;44.788;20.486;2023-05-15T00:20:00;11.07;;;6.35;;
54945;SDS011;40846;44.788;20.486;2023-05-15T00:22:28;9.68;;;6.20;;
54945;SDS011;40846;44.788;20.486;2023-05-15T00:24:54;10.10;;;5.80;;
54945;SDS011;40846;44.788;20.486;2023-05-15T00:27:20;10.35;;;6.43;;
54945;SDS011;40846;44.788;20.486;2023-05-15T00:29:46;12.20;;;6.78;;
54945;SDS011;40846;44.788;20.486;2023-05-15T00:32:13;14.70;;;6.38;;
54945;SDS011;40846;44.788;20.486;2023-05-15T00:34:39;12.18;;;6.53;;
54945;SDS011;40846;44.788;20.486;2023-05-15T00:37:05;8.63;;;6.07;;
54945;SDS011;40846;44.788;20.486;2023-05-15T00:39:32;10.80;;;6.18;;
54945;SDS011;40846;44.788;20.486;2023-05-15T00:41:59;16.27;;;6.22;;
54945;SDS011;40846;44.788;20.486;2023-05-15T00:44:25;13.10;;;5.80;;
54945;SDS011;40846;44.788;20.486;2023-05-15T00:46:53;11.35;;;6.72;;
54945;SDS011;40846;44.788;20.486;2023-05-15T00:49:19;13.80;;;6.22;;
54945;SDS011;40846;44.788;20.486;2023-05-15T00:51:46;16.80;;;5.80;;
54945;SDS011;40846;44.788;20.486;2023-05-15T00:54:12;16.58;;;5.72;;
54945;SDS011;40846;44.788;20.486;2023-05-15T00:56:39;11.70;;;5.47;;
54945;SDS011;40846;44.788;20.486;2023-05-15T00:59:05;10.95;;;5.53;;
54945;SDS011;40846;44.788;20.486;2023-05-15T01:01:32;13.82;;;5.20;;
54945;SDS011;40846;44.788;20.486;2023-05-15T01:04:02;9.57;;;5.60;;
54945;SDS011;40846;44.788;20.486;2023-05-15T01:06:28;8.93;;;4.90;;
54945;SDS011;40846;44.788;20.486;2023-05-15T01:08:55;8.52;;;5.38;;
54945;SDS011;40846;44.788;20.486;2023-05-15T01:11:23;11.05;;;5.30;;
54945;SDS011;40846;44.788;20.486;2023-05-15T01:13:49;9.45;;;5.25;;
54945;SDS011;40846;44.788;20.486;2023-05-15T01:16:15;12.60;;;5.60;;
54945;SDS011;40846;44.788;20.486;2023-05-15T01:18:42;11.10;;;5.88;;
54945;SDS011;40846;44.788;20.486;2023-05-15T01:31:31;10.02;;;4.82;;
54945;SDS011;40846;44.788;20.486;2023-05-15T01:34:01;7.93;;;4.97;;
54945;SDS011;40846;44.788;20.486;2023-05-15T01:36:44;13.52;;;6.15;;
54945;SDS011;40846;44.788;20.486;2023-05-15T01:39:11;8.48;;;5.28;;
54945;SDS011;40846;44.788;20.486;2023-05-15T01:41:44;17.88;;;6.63;;
54945;SDS011;40846;44.788;20.486;2023-05-15T01:46:38;12.45;;;5.20;;
54945;SDS011;40846;44.788;20.486;2023-05-15T01:49:08;9.93;;;5.72;;
54945;SDS011;40846;44.788;20.486;2023-05-15T01:51:34;7.50;;;4.88;;
54945;SDS011;40846;44.788;20.486;2023-05-15T01:54:01;8.77;;;5.43;;
54945;SDS011;40846;44.788;20.486;2023-05-15T01:56:28;12.38;;;5.45;;
54945;SDS011;40846;44.788;20.486;2023-05-15T01:58:55;8.75;;;4.82;;
54945;SDS011;40846;44.788;20.486;2023-05-15T02:01:24;14.68;;;5.60;;
54945;SDS011;40846;44.788;20.486;2023-05-15T02:03:50;11.38;;;4.80;;
54945;SDS011;40846;44.788;20.486;2023-05-15T02:06:17;13.48;;;5.13;;
54945;SDS011;40846;44.788;20.486;2023-05-15T02:08:44;8.98;;;4.72;;
54945;SDS011;40846;44.788;20.486;2023-05-15T02:11:10;11.45;;;4.63;;
54945;SDS011;40846;44.788;20.486;2023-05-15T02:13:38;10.85;;;4.80;;
54945;SDS011;40846;44.788;20.486;2023-05-15T02:16:05;9.18;;;4.95;;
54945;SDS011;40846;44.788;20.486;2023-05-15T02:18:32;13.23;;;5.22;;
54945;SDS011;40846;44.788;20.486;2023-05-15T02:20:58;15.90;;;5.20;;
54945;SDS011;40846;44.788;20.486;2023-05-15T02:23:27;15.32;;;5.40;;
54945;SDS011;40846;44.788;20.486;2023-05-15T02:26:11;11.07;;;5.68;;
54945;SDS011;40846;44.788;20.486;2023-05-15T02:28:46;9.55;;;4.85;;
54945;SDS011;40846;44.788;20.486;2023-05-15T02:36:31;16.90;;;5.20;;
54945;SDS011;40846;44.788;20.486;2023-05-15T02:38:58;9.05;;;4.38;;
54945;SDS011;40846;44.788;20.486;2023-05-15T02:41:24;8.25;;;4.63;;
54945;SDS011;40846;44.788;20.486;2023-05-15T02:43:51;28.95;;;5.25;;
54945;SDS011;40846;44.788;20.486;2023-05-15T02:46:19;14.45;;;5.53;;
54945;SDS011;40846;44.788;20.486;2023-05-15T02:48:46;10.75;;;5.13;;
54945;SDS011;40846;44.788;20.486;2023-05-15T02:51:13;11.55;;;4.82;;
54945;SDS011;40846;44.788;20.486;2023-05-15T02:53:40;11.95;;;4.90;;
54945;SDS011;40846;44.788;20.486;2023-05-15T02:56:06;11.50;;;4.75;;
54945;SDS011;40846;44.788;20.486;2023-05-15T02:58:32;18.73;;;6.72;;
54945;SDS011;40846;44.788;20.486;2023-05-15T03:00:59;8.88;;;4.85;;
54945;SDS011;40846;44.788;20.486;2023-05-15T03:03:25;11.23;;;4.40;;
54945;SDS011;40846;44.788;20.486;2023-05-15T03:05:51;14.48;;;4.82;;
54945;SDS011;40846;44.788;20.486;2023-05-15T03:08:18;26.23;;;5.75;;
54945;SDS011;40846;44.788;20.486;2023-05-15T03:10:44;10.05;;;4.57;;
54945;SDS011;40846;44.788;20.486;2023-05-15T03:13:10;12.23;;;5.00;;
54945;SDS011;40846;44.788;20.486;2023-05-15T03:15:36;17.40;;;5.47;;
54945;SDS011;40846;44.788;20.486;2023-05-15T03:18:02;12.40;;;4.95;;
54945;SDS011;40846;44.788;20.486;2023-05-15T03:20:28;10.52;;;5.35;;
54945;SDS011;40846;44.788;20.486;2023-05-15T03:22:54;9.48;;;5.07;;
54945;SDS011;40846;44.788;20.486;2023-05-15T03:25:21;12.73;;;5.35;;
54945;SDS011;40846;44.788;20.486;2023-05-15T03:27:47;18.02;;;5.50;;
54945;SDS011;40846;44.788;20.486;2023-05-15T03:30:13;11.02;;;5.35;;
54945;SDS011;40846;44.788;20.486;2023-05-15T03:32:39;9.60;;;5.25;;
54945;SDS011;40846;44.788;20.486;2023-05-15T03:35:05;19.85;;;5.60;;
54945;SDS011;40846;44.788;20.486;2023-05-15T03:37:31;10.05;;;4.85;;
54945;SDS011;40846;44.788;20.486;2023-05-15T03:39:58;10.07;;;5.57;;
54945;SDS011;40846;44.788;20.486;2023-05-15T03:42:24;11.20;;;5.20;;
54945;SDS011;40846;44.788;20.486;2023-05-15T03:44:50;11.98;;;5.00;;
54945;SDS011;40846;44.788;20.486;2023-05-15T03:47:16;13.45;;;4.90;;
54945;SDS011;40846;44.788;20.486;2023-05-15T03:49:42;11.88;;;5.72;;
54945;SDS011;40846;44.788;20.486;2023-05-15T03:52:09;18.85;;;5.25;;
54945;SDS011;40846;44.788;20.486;2023-05-15T03:54:35;9.82;;;5.15;;
54945;SDS011;40846;44.788;20.486;2023-05-15T03:57:01;14.68;;;4.63;;
54945;SDS011;40846;44.788;20.486;2023-05-15T03:59:28;11.95;;;4.65;;
54945;SDS011;40846;44.788;20.486;2023-05-15T04:01:55;16.90;;;5.85;;
54945;SDS011;40846;44.788;20.486;2023-05-15T04:04:24;18.08;;;5.43;;
54945;SDS011;40846;44.788;20.486;2023-05-15T04:06:50;10.50;;;5.63;;
54945;SDS011;40846;44.788;20.486;2023-05-15T04:09:16;14.48;;;5.82;;
54945;SDS011;40846;44.788;20.486;2023-05-15T04:11:42;10.32;;;5.10;;
54945;SDS011;40846;44.788;20.486;2023-05-15T04:14:10;14.02;;;5.90;;
54945;SDS011;40846;44.788;20.486;2023-05-15T04:16:36;18.88;;;5.70;;
54945;SDS011;40846;44.788;20.486;2023-05-15T04:19:02;12.15;;;5.57;;
54945;SDS011;40846;44.788;20.486;2023-05-15T04:21:29;8.82;;;5.05;;
54945;SDS011;40846;44.788;20.486;2023-05-15T04:23:55;15.45;;;6.10;;
54945;SDS011;40846;44.788;20.486;2023-05-15T04:26:21;10.73;;;5.43;;
54945;SDS011;40846;44.788;20.486;2023-05-15T04:28:47;13.75;;;5.50;;
54945;SDS011;40846;44.788;20.486;2023-05-15T04:31:13;12.35;;;5.22;;
54945;SDS011;40846;44.788;20.486;2023-05-15T04:33:39;14.77;;;5.38;;
54945;SDS011;40846;44.788;20.486;2023-05-15T04:36:06;18.88;;;5.25;;
54945;SDS011;40846;44.788;20.486;2023-05-15T04:38:32;20.05;;;5.70;;
54945;SDS011;40846;44.788;20.486;2023-05-15T04:40:58;17.75;;;6.28;;
54945;SDS011;40846;44.788;20.486;2023-05-15T04:43:24;15.55;;;5.38;;
54945;SDS011;40846;44.788;20.486;2023-05-15T04:45:50;13.15;;;5.38;;
54945;SDS011;40846;44.788;20.486;2023-05-15T04:48:16;14.40;;;5.90;;
54945;SDS011;40846;44.788;20.486;2023-05-15T04:50:43;13.73;;;5.63;;
54945;SDS011;40846;44.788;20.486;2023-05-15T04:53:09;17.05;;;5.82;;
54945;SDS011;40846;44.788;20.486;2023-05-15T04:55:35;18.15;;;6.50;;
54945;SDS011;40846;44.788;20.486;2023-05-15T04:58:07;10.55;;;6.38;;
54945;SDS011;40846;44.788;20.486;2023-05-15T05:00:37;12.38;;;6.38;;
54945;SDS011;40846;44.788;20.486;2023-05-15T05:03:03;19.10;;;6.22;;
54945;SDS011;40846;44.788;20.486;2023-05-15T05:05:30;12.45;;;6.05;;
54945;SDS011;40846;44.788;20.486;2023-05-15T05:07:56;10.93;;;5.40;;
54945;SDS011;40846;44.788;20.486;2023-05-15T05:10:22;9.70;;;5.63;;
54945;SDS011;40846;44.788;20.486;2023-05-15T05:12:48;14.05;;;6.03;;
54945;SDS011;40846;44.788;20.486;2023-05-15T05:15:14;14.23;;;6.03;;
54945;SDS011;40846;44.788;20.486;2023-05-15T05:17:40;7.97;;;5.22;;
54945;SDS011;40846;44.788;20.486;2023-05-15T05:20:10;10.13;;;5.13;;
54945;SDS011;40846;44.788;20.486;2023-05-15T05:22:36;12.57;;;5.70;;
54945;SDS011;40846;44.788;20.486;2023-05-15T05:25:04;14.73;;;5.68;;
54945;SDS011;40846;44.788;20.486;2023-05-15T05:27:30;9.75;;;6.00;;
54945;SDS011;40846;44.788;20.486;2023-05-15T05:29:56;16.15;;;6.07;;
54945;SDS011;40846;44.788;20.486;2023-05-15T05:32:22;13.93;;;5.97;;
54945;SDS011;40846;44.788;20.486;2023-05-15T05:34:48;12.25;;;6.03;;
54945;SDS011;40846;44.788;20.486;2023-05-15T05:37:15;19.27;;;6.35;;
54945;SDS011;40846;44.788;20.486;2023-05-15T05:39:41;9.88;;;6.03;;
54945;SDS011;40846;44.788;20.486;2023-05-15T05:42:07;18.45;;;8.00;;
54945;SDS011;40846;44.788;20.486;2023-05-15T05:44:33;19.67;;;6.28;;
54945;SDS011;40846;44.788;20.486;2023-05-15T05:46:59;23.33;;;7.72;;
54945;SDS011;40846;44.788;20.486;2023-05-15T05:49:25;11.27;;;6.32;;
54945;SDS011;40846;44.788;20.486;2023-05-15T05:51:51;14.68;;;5.97;;
54945;SDS011;40846;44.788;20.486;2023-05-15T05:54:17;11.80;;;6.07;;
54945;SDS011;40846;44.788;20.486;2023-05-15T05:56:43;16.17;;;6.93;;
54945;SDS011;40846;44.788;20.486;2023-05-15T05:59:10;15.07;;;7.50;;
54945;SDS011;40846;44.788;20.486;2023-05-15T06:01:36;16.27;;;6.47;;
54945;SDS011;40846;44.788;20.486;2023-05-15T06:04:02;34.70;;;7.35;;
54945;SDS011;40846;44.788;20.486;2023-05-15T06:06:28;12.45;;;6.22;;
54945;SDS011;40846;44.788;20.486;2023-05-15T06:08:55;12.80;;;6.47;;
54945;SDS011;40846;44.788;20.486;2023-05-15T06:11:21;16.92;;;7.35;;
54945;SDS011;40846;44.788;20.486;2023-05-15T06:13:47;19.85;;;7.50;;
54945;SDS011;40846;44.788;20.486;2023-05-15T06:16:13;15.77;;;7.35;;
54945;SDS011;40846;44.788;20.486;2023-05-15T06:18:39;11.95;;;6.78;;
54945;SDS011;40846;44.788;20.486;2023-05-15T06:21:05;13.63;;;6.28;;
54945;SDS011;40846;44.788;20.486;2023-05-15T06:23:31;17.40;;;6.60;;
54945;SDS011;40846;44.788;20.486;2023-05-15T06:25:57;13.55;;;6.68;;
54945;SDS011;40846;44.788;20.486;2023-05-15T06:28:23;14.50;;;5.90;;
54945;SDS011;40846;44.788;20.486;2023-05-15T06:30:49;12.32;;;6.43;;
54945;SDS011;40846;44.788;20.486;2023-05-15T06:33:15;11.23;;;6.38;;
54945;SDS011;40846;44.788;20.486;2023-05-15T06:35:41;14.35;;;6.15;;
54945;SDS011;40846;44.788;20.486;2023-05-15T06:38:08;10.95;;;6.03;;
54945;SDS011;40846;44.788;20.486;2023-05-15T06:40:34;11.20;;;5.68;;
54945;SDS011;40846;44.788;20.486;2023-05-15T06:43:01;16.83;;;6.30;;
54945;SDS011;40846;44.788;20.486;2023-05-15T06:45:27;15.30;;;5.97;;
54945;SDS011;40846;44.788;20.486;2023-05-15T06:47:54;12.13;;;5.78;;
54945;SDS011;40846;44.788;20.486;2023-05-15T06:50:20;10.35;;;6.22;;
54945;SDS011;40846;44.788;20.486;2023-05-15T06:52:46;13.43;;;5.72;;
54945;SDS011;40846;44.788;20.486;2023-05-15T06:55:12;18.27;;;7.15;;
54945;SDS011;40846;44.788;20.486;2023-05-15T06:57:38;11.90;;;6.10;;
54945;SDS011;40846;44.788;20.486;2023-05-15T07:00:04;14.85;;;7.05;;
54945;SDS011;40846;44.788;20.486;2023-05-15T07:02:30;24.63;;;6.50;;
54945;SDS011;40846;44.788;20.486;2023-05-15T07:04:57;16.58;;;5.75;;
54945;SDS011;40846;44.788;20.486;2023-05-15T07:07:23;18.15;;;6.60;;
54945;SDS011;40846;44.788;20.486;2023-05-15T07:09:49;11.63;;;6.88;;
54945;SDS011;40846;44.788;20.486;2023-05-15T07:12:16;11.27;;;5.40;;
54945;SDS011;40846;44.788;20.486;2023-05-15T07:14:48;20.48;;;5.90;;
54945;SDS011;40846;44.788;20.486;2023-05-15T07:17:14;22.58;;;6.05;;
54945;SDS011;40846;44.788;20.486;2023-05-15T07:19:40;12.13;;;6.30;;
54945;SDS011;40846;44.788;20.486;2023-05-15T07:22:06;14.27;;;7.10;;
54945;SDS011;40846;44.788;20.486;2023-05-15T07:24:33;14.70;;;7.70;;
54945;SDS011;40846;44.788;20.486;2023-05-15T07:26:59;15.52;;;7.90;;
54945;SDS011;40846;44.788;20.486;2023-05-15T07:29:26;15.10;;;7.40;;
54945;SDS011;40846;44.788;20.486;2023-05-15T07:31:52;13.98;;;7.15;;
54945;SDS011;40846;44.788;20.486;2023-05-15T07:34:18;16.60;;;7.80;;
54945;SDS011;40846;44.788;20.486;2023-05-15T07:36:44;18.02;;;6.78;;
54945;SDS011;40846;44.788;20.486;2023-05-15T07:39:10;15.45;;;6.75;;
54945;SDS011;40846;44.788;20.486;2023-05-15T07:41:36;11.88;;;6.63;;
54945;SDS011;40846;44.788;20.486;2023-05-15T07:44:02;13.20;;;6.68;;
54945;SDS011;40846;44.788;20.486;2023-05-15T07:46:28;13.15;;;6.38;;
54945;SDS011;40846;44.788;20.486;2023-05-15T07:48:54;12.82;;;5.85;;
54945;SDS011;40846;44.788;20.486;2023-05-15T07:51:21;18.60;;;6.15;;
54945;SDS011;40846;44.788;20.486;2023-05-15T07:53:48;17.00;;;6.53;;
54945;SDS011;40846;44.788;20.486;2023-05-15T07:56:14;18.52;;;6.57;;
54945;SDS011;40846;44.788;20.486;2023-05-15T07:58:40;13.27;;;6.80;;
54945;SDS011;40846;44.788;20.486;2023-05-15T08:01:06;16.08;;;7.05;;
54945;SDS011;40846;44.788;20.486;2023-05-15T08:03:33;13.50;;;6.03;;
54945;SDS011;40846;44.788;20.486;2023-05-15T08:05:59;17.60;;;5.28;;
54945;SDS011;40846;44.788;20.486;2023-05-15T08:08:25;14.73;;;5.65;;
54945;SDS011;40846;44.788;20.486;2023-05-15T08:10:51;11.82;;;6.47;;
54945;SDS011;40846;44.788;20.486;2023-05-15T08:13:17;12.70;;;6.10;;
54945;SDS011;40846;44.788;20.486;2023-05-15T08:15:43;12.70;;;5.95;;
54945;SDS011;40846;44.788;20.486;2023-05-15T08:18:09;13.20;;;6.35;;
54945;SDS011;40846;44.788;20.486;2023-05-15T08:20:36;15.27;;;6.55;;
54945;SDS011;40846;44.788;20.486;2023-05-15T08:23:03;10.38;;;5.82;;
54945;SDS011;40846;44.788;20.486;2023-05-15T08:25:29;14.32;;;6.43;;
54945;SDS011;40846;44.788;20.486;2023-05-15T08:27:55;12.35;;;6.45;;
54945;SDS011;40846;44.788;20.486;2023-05-15T08:30:22;8.55;;;6.10;;
54945;SDS011;40846;44.788;20.486;2023-05-15T08:32:48;12.05;;;6.13;;
54945;SDS011;40846;44.788;20.486;2023-05-15T08:35:15;12.68;;;6.18;;
54945;SDS011;40846;44.788;20.486;2023-05-15T08:37:41;15.82;;;6.35;;
54945;SDS011;40846;44.788;20.486;2023-05-15T08:40:07;12.98;;;5.70;;
54945;SDS011;40846;44.788;20.486;2023-05-15T08:42:43;20.55;;;6.68;;
54945;SDS011;40846;44.788;20.486;2023-05-15T08:45:11;18.90;;;7.63;;
54945;SDS011;40846;44.788;20.486;2023-05-15T08:47:38;10.10;;;6.50;;
54945;SDS011;40846;44.788;20.486;2023-05-15T08:50:05;11.52;;;6.38;;
54945;SDS011;40846;44.788;20.486;2023-05-15T08:52:37;13.10;;;7.45;;
54945;SDS011;40846;44.788;20.486;2023-05-15T08:55:06;15.23;;;6.25;;
54945;SDS011;40846;44.788;20.486;2023-05-15T08:57:32;13.10;;;7.03;;
54945;SDS011;40846;44.788;20.486;2023-05-15T08:59:58;15.82;;;6.78;;
54945;SDS011;40846;44.788;20.486;2023-05-15T09:02:25;11.57;;;6.70;;
54945;SDS011;40846;44.788;20.486;2023-05-15T09:04:51;14.85;;;6.63;;
54945;SDS011;40846;44.788;20.486;2023-05-15T09:07:17;16.90;;;6.90;;
54945;SDS011;40846;44.788;20.486;2023-05-15T09:09:43;11.45;;;7.20;;
54945;SDS011;40846;44.788;20.486;2023-05-15T09:12:10;14.20;;;7.07;;
54945;SDS011;40846;44.788;20.486;2023-05-15T09:14:38;14.15;;;7.57;;
54945;SDS011;40846;44.788;20.486;2023-05-15T09:17:04;22.40;;;8.63;;
54945;SDS011;40846;44.788;20.486;2023-05-15T09:19:30;23.70;;;8.85;;
54945;SDS011;40846;44.788;20.486;2023-05-15T09:22:12;21.88;;;7.88;;
54945;SDS011;40846;44.788;20.486;2023-05-15T09:24:41;15.82;;;8.05;;
54945;SDS011;40846;44.788;20.486;2023-05-15T09:27:07;16.35;;;8.20;;
54945;SDS011;40846;44.788;20.486;2023-05-15T09:29:36;20.75;;;11.98;;
54945;SDS011;40846;44.788;20.486;2023-05-15T09:32:02;16.05;;;7.70;;
54945;SDS011;40846;44.788;20.486;2023-05-15T09:34:32;18.10;;;7.95;;
54945;SDS011;40846;44.788;20.486;2023-05-15T09:37:00;19.85;;;7.88;;
54945;SDS011;40846;44.788;20.486;2023-05-15T09:39:29;15.27;;;8.18;;
54945;SDS011;40846;44.788;20.486;2023-05-15T09:42:12;14.85;;;8.10;;
54945;SDS011;40846;44.788;20.486;2023-05-15T09:44:42;15.63;;;8.82;;
54945;SDS011;40846;44.788;20.486;2023-05-15T09:47:12;12.82;;;8.07;;
54945;SDS011;40846;44.788;20.486;2023-05-15T09:49:38;21.38;;;8.55;;
54945;SDS011;40846;44.788;20.486;2023-05-15T09:52:08;17.40;;;8.05;;
54945;SDS011;40846;44.788;20.486;2023-05-15T09:54:34;18.02;;;8.38;;
54945;SDS011;40846;44.788;20.486;2023-05-15T09:57:07;17.70;;;8.48;;
54945;SDS011;40846;44.788;20.486;2023-05-15T09:59:35;17.00;;;8.15;;
54945;SDS011;40846;44.788;20.486;2023-05-15T10:02:07;14.23;;;7.93;;
54945;SDS011;40846;44.788;20.486;2023-05-15T10:04:40;19.17;;;8.70;;
54945;SDS011;40846;44.788;20.486;2023-05-15T10:07:07;14.85;;;8.55;;
54945;SDS011;40846;44.788;20.486;2023-05-15T10:09:34;16.48;;;9.35;;
54945;SDS011;40846;44.788;20.486;2023-05-15T10:12:00;16.35;;;8.07;;
54945;SDS011;40846;44.788;20.486;2023-05-15T10:14:26;15.73;;;7.47;;
54945;SDS011;40846;44.788;20.486;2023-05-15T10:16:55;15.60;;;7.88;;
54945;SDS011;40846;44.788;20.486;2023-05-15T10:19:21;15.85;;;7.82;;
54945;SDS011;40846;44.788;20.486;2023-05-15T10:21:48;18.42;;;9.27;;
54945;SDS011;40846;44.788;20.486;2023-05-15T10:24:15;15.43;;;8.48;;
54945;SDS011;40846;44.788;20.486;2023-05-15T10:26:44;17.85;;;7.60;;
54945;SDS011;40846;44.788;20.486;2023-05-15T10:29:13;12.68;;;8.10;;
54945;SDS011;40846;44.788;20.486;2023-05-15T10:31:40;28.85;;;8.57;;
54945;SDS011;40846;44.788;20.486;2023-05-15T10:34:07;15.18;;;7.63;;
54945;SDS011;40846;44.788;20.486;2023-05-15T10:36:34;20.77;;;7.88;;
54945;SDS011;40846;44.788;20.486;2023-05-15T10:39:04;13.75;;;7.10;;
54945;SDS011;40846;44.788;20.486;2023-05-15T10:41:32;22.00;;;7.70;;
54945;SDS011;40846;44.788;20.486;2023-05-15T10:44:03;17.42;;;7.50;;
54945;SDS011;40846;44.788;20.486;2023-05-15T10:46:30;17.88;;;7.70;;
54945;SDS011;40846;44.788;20.486;2023-05-15T10:48:58;17.85;;;7.55;;
54945;SDS011;40846;44.788;20.486;2023-05-15T10:51:29;15.57;;;7.93;;
54945;SDS011;40846;44.788;20.486;2023-05-15T10:54:01;10.93;;;6.68;;
54945;SDS011;40846;44.788;20.486;2023-05-15T10:56:30;48.42;;;7.95;;
54945;SDS011;40846;44.788;20.486;2023-05-15T10:58:56;18.05;;;7.65;;
54945;SDS011;40846;44.788;20.486;2023-05-15T11:01:27;13.40;;;6.97;;
54945;SDS011;40846;44.788;20.486;2023-05-15T11:04:06;15.52;;;6.72;;
54945;SDS011;40846;44.788;20.486;2023-05-15T11:06:33;12.10;;;6.32;;
54945;SDS011;40846;44.788;20.486;2023-05-15T11:14:20;15.55;;;6.63;;
54945;SDS011;40846;44.788;20.486;2023-05-15T11:19:20;14.82;;;7.68;;
54945;SDS011;40846;44.788;20.486;2023-05-15T11:21:46;12.43;;;6.15;;
54945;SDS011;40846;44.788;20.486;2023-05-15T11:24:12;11.60;;;5.85;;
54945;SDS011;40846;44.788;20.486;2023-05-15T11:26:42;12.43;;;6.05;;
54945;SDS011;40846;44.788;20.486;2023-05-15T11:29:17;13.63;;;6.25;;
54945;SDS011;40846;44.788;20.486;2023-05-15T11:31:44;15.38;;;6.05;;
54945;SDS011;40846;44.788;20.486;2023-05-15T11:34:10;10.65;;;5.25;;
54945;SDS011;40846;44.788;20.486;2023-05-15T11:36:36;13.07;;;5.88;;
54945;SDS011;40846;44.788;20.486;2023-05-15T11:39:10;23.42;;;6.07;;
54945;SDS011;40846;44.788;20.486;2023-05-15T11:41:36;15.68;;;5.20;;
54945;SDS011;40846;44.788;20.486;2023-05-15T11:44:03;12.60;;;5.43;;
54945;SDS011;40846;44.788;20.486;2023-05-15T11:46:29;16.50;;;5.85;;
54945;SDS011;40846;44.788;20.486;2023-05-15T11:48:57;13.23;;;5.32;;
54945;SDS011;40846;44.788;20.486;2023-05-15T11:51:24;14.88;;;5.20;;
54945;SDS011;40846;44.788;20.486;2023-05-15T11:53:53;11.60;;;5.10;;
54945;SDS011;40846;44.788;20.486;2023-05-15T11:56:24;17.90;;;5.45;;
54945;SDS011;40846;44.788;20.486;2023-05-15T11:58:58;18.20;;;5.32;;
54945;SDS011;40846;44.788;20.486;2023-05-15T12:01:26;11.77;;;4.00;;
54945;SDS011;40846;44.788;20.486;2023-05-15T12:03:54;14.30;;;5.15;;
54945;SDS011;40846;44.788;20.486;2023-05-15T12:06:20;14.13;;;5.07;;
54945;SDS011;40846;44.788;20.486;2023-05-15T12:08:50;11.55;;;4.57;;
54945;SDS011;40846;44.788;20.486;2023-05-15T12:11:19;14.82;;;5.45;;
54945;SDS011;40846;44.788;20.486;2023-05-15T12:13:49;12.27;;;5.32;;
54945;SDS011;40846;44.788;20.486;2023-05-15T12:16:15;15.13;;;4.85;;
54945;SDS011;40846;44.788;20.486;2023-05-15T12:18:41;14.88;;;5.53;;
54945;SDS011;40846;44.788;20.486;2023-05-15T12:21:08;12.95;;;5.20;;
54945;SDS011;40846;44.788;20.486;2023-05-15T12:23:35;13.98;;;5.47;;
54945;SDS011;40846;44.788;20.486;2023-05-15T12:26:01;11.32;;;5.45;;
54945;SDS011;40846;44.788;20.486;2023-05-15T12:28:27;13.68;;;4.60;;
54945;SDS011;40846;44.788;20.486;2023-05-15T12:30:54;14.43;;;4.43;;
54945;SDS011;40846;44.788;20.486;2023-05-15T12:33:21;15.82;;;5.22;;
54945;SDS011;40846;44.788;20.486;2023-05-15T12:35:53;11.73;;;4.70;;
54945;SDS011;40846;44.788;20.486;2023-05-15T12:38:20;15.50;;;5.82;;
54945;SDS011;40846;44.788;20.486;2023-05-15T12:40:46;18.25;;;5.13;;
54945;SDS011;40846;44.788;20.486;2023-05-15T12:43:17;9.55;;;5.07;;
54945;SDS011;40846;44.788;20.486;2023-05-15T12:45:43;15.05;;;5.10;;
54945;SDS011;40846;44.788;20.486;2023-05-15T12:48:13;15.27;;;5.00;;
54945;SDS011;40846;44.788;20.486;2023-05-15T12:50:39;14.23;;;5.03;;
54945;SDS011;40846;44.788;20.486;2023-05-15T12:53:05;17.27;;;5.50;;
54945;SDS011;40846;44.788;20.486;2023-05-15T12:55:32;10.68;;;5.05;;
54945;SDS011;40846;44.788;20.486;2023-05-15T12:57:59;13.73;;;5.05;;
54945;SDS011;40846;44.788;20.486;2023-05-15T13:00:30;12.18;;;4.90;;
54945;SDS011;40846;44.788;20.486;2023-05-15T13:02:56;11.95;;;4.70;;
54945;SDS011;40846;44.788;20.486;2023-05-15T13:05:23;16.25;;;5.38;;
54945;SDS011;40846;44.788;20.486;2023-05-15T13:07:50;14.98;;;6.32;;
54945;SDS011;40846;44.788;20.486;2023-05-15T13:10:19;12.40;;;5.28;;
54945;SDS011;40846;44.788;20.486;2023-05-15T13:12:46;15.38;;;7.38;;
54945;SDS011;40846;44.788;20.486;2023-05-15T13:17:47;12.20;;;5.93;;
54945;SDS011;40846;44.788;20.486;2023-05-15T13:20:13;12.80;;;5.25;;
54945;SDS011;40846;44.788;20.486;2023-05-15T13:22:39;12.75;;;6.35;;
54945;SDS011;40846;44.788;20.486;2023-05-15T13:25:05;16.92;;;6.57;;
54945;SDS011;40846;44.788;20.486;2023-05-15T13:27:33;15.48;;;5.50;;
54945;SDS011;40846;44.788;20.486;2023-05-15T13:30:00;21.40;;;6.22;;
54945;SDS011;40846;44.788;20.486;2023-05-15T13:32:26;15.88;;;5.38;;
54945;SDS011;40846;44.788;20.486;2023-05-15T13:34:52;18.55;;;5.97;;
54945;SDS011;40846;44.788;20.486;2023-05-15T13:37:21;15.95;;;5.63;;
54945;SDS011;40846;44.788;20.486;2023-05-15T13:39:48;13.65;;;5.53;;
54945;SDS011;40846;44.788;20.486;2023-05-15T13:42:16;12.45;;;6.22;;
54945;SDS011;40846;44.788;20.486;2023-05-15T13:44:42;13.00;;;5.78;;
54945;SDS011;40846;44.788;20.486;2023-05-15T13:47:08;14.25;;;5.78;;
54945;SDS011;40846;44.788;20.486;2023-05-15T13:49:34;18.55;;;6.35;;
54945;SDS011;40846;44.788;20.486;2023-05-15T13:52:01;14.77;;;7.00;;
54945;SDS011;40846;44.788;20.486;2023-05-15T13:54:28;20.17;;;5.90;;
54945;SDS011;40846;44.788;20.486;2023-05-15T13:56:54;12.75;;;5.78;;
54945;SDS011;40846;44.788;20.486;2023-05-15T13:59:20;24.20;;;6.18;;
54945;SDS011;40846;44.788;20.486;2023-05-15T14:01:46;15.23;;;5.70;;
54945;SDS011;40846;44.788;20.486;2023-05-15T14:04:13;17.70;;;5.82;;
54945;SDS011;40846;44.788;20.486;2023-05-15T14:06:39;19.85;;;6.15;;
54945;SDS011;40846;44.788;20.486;2023-05-15T14:09:05;23.98;;;6.70;;
54945;SDS011;40846;44.788;20.486;2023-05-15T14:11:31;16.90;;;6.57;;
54945;SDS011;40846;44.788;20.486;2023-05-15T14:13:57;12.10;;;6.25;;
54945;SDS011;40846;44.788;20.486;2023-05-15T14:16:26;13.75;;;7.05;;
54945;SDS011;40846;44.788;20.486;2023-05-15T14:18:52;13.93;;;7.18;;
54945;SDS011;40846;44.788;20.486;2023-05-15T14:21:18;13.40;;;6.20;;
54945;SDS011;40846;44.788;20.486;2023-05-15T14:23:44;13.10;;;6.50;;
54945;SDS011;40846;44.788;20.486;2023-05-15T14:26:10;10.88;;;5.93;;
54945;SDS011;40846;44.788;20.486;2023-05-15T14:28:37;10.02;;;6.07;;
54945;SDS011;40846;44.788;20.486;2023-05-15T14:31:03;14.48;;;6.78;;
54945;SDS011;40846;44.788;20.486;2023-05-15T14:33:29;16.05;;;6.35;;
54945;SDS011;40846;44.788;20.486;2023-05-15T14:35:55;14.32;;;6.25;;
54945;SDS011;40846;44.788;20.486;2023-05-15T14:38:22;15.65;;;6.63;;
54945;SDS011;40846;44.788;20.486;2023-05-15T14:40:48;15.43;;;6.88;;
54945;SDS011;40846;44.788;20.486;2023-05-15T14:43:14;22.88;;;7.63;;
54945;SDS011;40846;44.788;20.486;2023-05-15T14:45:40;17.42;;;8.18;;
54945;SDS011;40846;44.788;20.486;2023-05-15T14:48:06;23.77;;;7.28;;
54945;SDS011;40846;44.788;20.486;2023-05-15T14:50:33;13.30;;;6.97;;